createdAt,value
2022-12-17T00:02:16.281Z,27.95
2022-12-17T00:05:01.857Z,23.02
2022-12-17T00:07:47.669Z,34.35
2022-12-17T00:10:33.470Z,27.00
2022-12-17T00:13:19.391Z,28.52
2022-12-17T00:16:11.287Z,22.52
2022-12-17T00:18:57.017Z,21.67
2022-12-17T00:21:42.960Z,25.60
2022-12-17T00:24:28.533Z,14.80
2022-12-17T00:27:14.399Z,18.33
2022-12-17T00:30:00.224Z,25.25
2022-12-17T00:32:46.181Z,26.55
2022-12-17T00:35:31.766Z,20.60
2022-12-17T00:38:17.689Z,20.55
2022-12-17T00:41:03.406Z,21.55
2022-12-17T00:43:48.823Z,21.77
2022-12-17T00:46:34.856Z,18.90
2022-12-17T00:49:20.566Z,20.02
2022-12-17T00:52:06.467Z,22.17
2022-12-17T00:54:52.467Z,19.75
2022-12-17T00:57:38.183Z,22.17
2022-12-17T01:00:24.722Z,22.67
2022-12-17T01:03:10.633Z,18.63
2022-12-17T01:05:56.201Z,23.20
2022-12-17T01:08:42.260Z,18.77
2022-12-17T01:11:28.188Z,20.05
2022-12-17T01:14:14.100Z,21.42
2022-12-17T01:17:00.187Z,18.23
2022-12-17T01:19:46.972Z,19.17
2022-12-17T01:22:32.967Z,16.00
2022-12-17T01:25:18.983Z,18.90
2022-12-17T01:28:09.187Z,18.38
2022-12-17T01:30:56.987Z,19.10
2022-12-17T01:33:43.201Z,21.25
2022-12-17T01:36:29.176Z,22.70
2022-12-17T01:39:15.073Z,18.05
2022-12-17T01:42:01.173Z,18.90
2022-12-17T01:45:12.336Z,19.95
2022-12-17T01:48:12.015Z,21.50
2022-12-17T01:53:54.292Z,17.52
2022-12-17T01:56:45.091Z,22.88
2022-12-17T01:59:33.426Z,18.27
2022-12-17T02:02:19.343Z,16.63
2022-12-17T02:05:05.267Z,15.80
2022-12-17T02:07:56.960Z,20.30
2022-12-17T02:11:08.178Z,24.35
2022-12-17T02:14:03.587Z,20.48
2022-12-17T02:17:08.022Z,17.58
2022-12-17T02:20:09.163Z,28.52
2022-12-17T02:23:06.767Z,23.48
2022-12-17T02:26:07.163Z,21.20
2022-12-17T02:29:00.224Z,16.52
2022-12-17T02:31:49.125Z,22.33
2022-12-17T02:34:35.023Z,14.02
2022-12-17T02:37:21.139Z,19.20
2022-12-17T02:40:07.444Z,19.00
2022-12-17T02:42:55.149Z,15.85
2022-12-17T02:45:42.633Z,19.15
2022-12-17T02:48:30.721Z,19.83
2022-12-17T02:51:18.115Z,26.88
2022-12-17T02:54:08.803Z,23.35
2022-12-17T02:56:54.606Z,15.13
2022-12-17T02:59:40.701Z,17.00
2022-12-17T03:02:32.455Z,17.65
2022-12-17T03:05:43.386Z,21.73
2022-12-17T03:08:24.036Z,18.15
2022-12-17T03:11:09.855Z,27.65
2022-12-17T03:13:55.675Z,18.83
2022-12-17T03:16:41.862Z,21.25
2022-12-17T03:19:29.053Z,23.67
2022-12-17T03:22:14.979Z,25.63
2022-12-17T03:25:00.745Z,29.33
2022-12-17T03:27:46.461Z,24.45
2022-12-17T03:30:35.784Z,25.58
2022-12-17T03:33:22.142Z,21.13
2022-12-17T03:36:11.335Z,17.02
2022-12-17T03:39:01.590Z,21.55
2022-12-17T03:41:47.589Z,21.67
2022-12-17T03:44:33.391Z,17.75
2022-12-17T03:47:19.434Z,15.50
2022-12-17T03:50:05.655Z,24.15
2022-12-17T03:52:51.334Z,22.40
2022-12-17T03:55:37.050Z,15.95
2022-12-17T03:58:22.740Z,25.85
2022-12-17T04:01:08.761Z,16.02
2022-12-17T04:03:54.686Z,19.60
2022-12-17T04:06:40.673Z,22.65
2022-12-17T04:09:26.460Z,19.98
2022-12-17T04:12:12.125Z,20.35
2022-12-17T04:14:58.422Z,20.90
2022-12-17T04:17:44.164Z,18.75
2022-12-17T04:20:30.252Z,17.85
2022-12-17T04:23:16.138Z,16.33
2022-12-17T04:26:02.004Z,21.13
2022-12-17T04:28:47.931Z,20.10
2022-12-17T04:31:35.165Z,15.30
2022-12-17T04:34:20.916Z,23.75
2022-12-17T04:37:07.119Z,25.55
2022-12-17T04:39:52.994Z,24.40
2022-12-17T04:42:38.746Z,28.15
2022-12-17T04:45:25.159Z,23.27
2022-12-17T04:48:18.922Z,20.63
2022-12-17T04:51:04.664Z,23.10
2022-12-17T04:53:50.437Z,24.50
2022-12-17T04:56:36.201Z,21.50
2022-12-17T04:59:22.574Z,18.40
2022-12-17T05:02:08.368Z,16.77
2022-12-17T05:04:54.308Z,22.65
2022-12-17T05:07:40.046Z,16.85
2022-12-17T05:10:26.023Z,21.27
2022-12-17T05:13:19.753Z,24.67
2022-12-17T05:16:05.682Z,26.65
2022-12-17T05:18:51.772Z,31.20
2022-12-17T05:21:37.727Z,26.10
2022-12-17T05:24:24.019Z,20.52
2022-12-17T05:27:09.610Z,28.98
2022-12-17T05:29:55.261Z,21.48
2022-12-17T05:32:40.848Z,19.45
2022-12-17T05:35:27.405Z,19.55
2022-12-17T05:38:13.300Z,17.80
2022-12-17T05:40:59.295Z,21.08
2022-12-17T05:43:44.986Z,22.08
2022-12-17T05:46:30.737Z,17.73
2022-12-17T05:49:16.434Z,26.10
2022-12-17T05:52:02.363Z,20.05
2022-12-17T05:54:47.909Z,22.80
2022-12-17T05:57:34.346Z,19.38
2022-12-17T06:00:20.403Z,20.83
2022-12-17T06:03:06.499Z,18.27
2022-12-17T06:05:52.318Z,21.33
2022-12-17T06:08:38.011Z,23.92
2022-12-17T06:11:23.733Z,23.10
2022-12-17T06:14:09.784Z,27.38
2022-12-17T06:16:55.984Z,24.70
2022-12-17T06:19:41.820Z,20.58
2022-12-17T06:22:29.350Z,21.30
2022-12-17T06:25:15.197Z,17.38
2022-12-17T06:28:01.025Z,21.95
2022-12-17T06:30:47.347Z,23.83
2022-12-17T06:33:33.279Z,21.33
2022-12-17T06:36:22.554Z,20.13
2022-12-17T06:39:09.428Z,24.20
2022-12-17T06:42:02.052Z,18.08
2022-12-17T06:44:50.969Z,15.18
2022-12-17T06:47:36.974Z,19.85
2022-12-17T06:50:24.042Z,20.83
2022-12-17T06:53:24.799Z,36.03
2022-12-17T06:56:11.508Z,26.27
2022-12-17T06:58:57.430Z,20.27
2022-12-17T07:01:43.220Z,23.05
2022-12-17T07:04:29.451Z,25.92
2022-12-17T07:07:15.461Z,20.65
2022-12-17T07:10:01.223Z,22.38
2022-12-17T07:12:51.682Z,26.45
2022-12-17T07:15:37.758Z,18.52
2022-12-17T07:18:23.996Z,16.25
2022-12-17T07:21:12.154Z,18.33
2022-12-17T07:23:57.852Z,18.02
2022-12-17T07:26:43.587Z,20.92
2022-12-17T07:29:29.695Z,20.48
2022-12-17T07:32:15.869Z,19.35
2022-12-17T07:35:01.879Z,18.38
2022-12-17T07:37:47.760Z,23.15
2022-12-17T07:40:33.736Z,16.25
2022-12-17T07:43:19.569Z,26.13
2022-12-17T07:46:05.483Z,22.42
2022-12-17T07:48:51.267Z,17.48
2022-12-17T07:51:37.155Z,12.73
2022-12-17T07:54:23.303Z,17.88
2022-12-17T07:57:08.935Z,30.70
2022-12-17T07:59:54.673Z,37.33
2022-12-17T08:02:40.571Z,19.65
2022-12-17T08:05:26.746Z,36.97
2022-12-17T08:08:13.049Z,28.15
2022-12-17T08:10:59.007Z,28.48
2022-12-17T08:13:47.899Z,35.97
2022-12-17T08:16:33.875Z,26.30
2022-12-17T08:19:19.563Z,24.98
2022-12-17T08:22:05.275Z,22.27
2022-12-17T08:24:51.078Z,22.08
2022-12-17T08:27:36.642Z,26.45
2022-12-17T08:30:24.648Z,20.33
2022-12-17T08:33:10.451Z,18.23
2022-12-17T08:35:56.415Z,21.17
2022-12-17T08:38:42.255Z,21.73
2022-12-17T08:41:27.843Z,24.70
2022-12-17T08:44:13.692Z,22.23
2022-12-17T08:46:59.498Z,17.00
2022-12-17T08:49:52.868Z,18.05
2022-12-17T08:52:38.935Z,22.00
2022-12-17T08:55:25.363Z,21.92
2022-12-17T08:58:15.543Z,23.02
2022-12-17T09:01:02.835Z,21.38
2022-12-17T09:03:48.928Z,23.05
2022-12-17T09:06:39.114Z,23.60
2022-12-17T09:09:25.821Z,15.27
2022-12-17T09:12:11.620Z,16.40
2022-12-17T09:14:57.509Z,18.50
2022-12-17T09:17:43.508Z,15.43
2022-12-17T09:20:29.934Z,20.15
2022-12-17T09:23:16.671Z,12.90
2022-12-17T09:26:02.488Z,15.65
2022-12-17T09:28:48.403Z,13.52
2022-12-17T09:31:37.475Z,14.05
2022-12-17T09:34:23.968Z,13.68
2022-12-17T09:37:10.139Z,11.65
2022-12-17T09:39:56.418Z,17.85
2022-12-17T09:42:52.522Z,14.07
2022-12-17T09:45:46.634Z,14.18
2022-12-17T09:51:24.160Z,17.65
2022-12-17T09:54:11.437Z,17.40
2022-12-17T09:57:00.810Z,11.98
2022-12-17T09:59:54.058Z,18.55
2022-12-17T10:02:45.076Z,15.40
2022-12-17T10:05:49.684Z,13.23
2022-12-17T10:08:40.485Z,15.07
2022-12-17T10:11:40.355Z,13.05
2022-12-17T10:14:45.184Z,12.07
2022-12-17T10:17:37.263Z,14.70
2022-12-17T10:20:33.061Z,11.85
2022-12-17T10:23:18.749Z,9.68
2022-12-17T10:26:13.301Z,12.07
2022-12-17T10:29:00.284Z,11.43
2022-12-17T10:31:49.679Z,13.75
2022-12-17T10:34:39.887Z,9.50
2022-12-17T10:37:40.353Z,9.73
2022-12-17T10:40:48.665Z,13.60
2022-12-17T10:43:51.732Z,13.13
2022-12-17T10:46:53.216Z,13.40
2022-12-17T10:49:42.488Z,9.77
2022-12-17T10:52:49.383Z,11.70
2022-12-17T10:55:46.692Z,11.65
2022-12-17T10:58:36.103Z,14.90
2022-12-17T11:01:23.763Z,11.23
2022-12-17T11:04:16.511Z,8.30
2022-12-17T11:07:09.640Z,10.57
2022-12-17T11:10:00.310Z,12.15
2022-12-17T11:12:57.171Z,10.82
2022-12-17T11:16:05.716Z,9.60
2022-12-17T11:19:17.315Z,14.40
2022-12-17T11:22:21.164Z,10.32
2022-12-17T11:25:40.262Z,10.80
2022-12-17T11:28:42.641Z,9.82
2022-12-17T11:31:54.336Z,7.15
2022-12-17T11:34:59.281Z,9.45
2022-12-17T11:37:57.651Z,14.45
2022-12-17T11:40:55.777Z,10.93
2022-12-17T11:44:00.440Z,10.48
2022-12-17T11:47:15.232Z,16.05
2022-12-17T11:50:29.800Z,12.45
2022-12-17T11:53:31.409Z,8.93
2022-12-17T11:56:37.913Z,11.40
2022-12-17T11:59:42.314Z,8.07
2022-12-17T12:02:38.704Z,12.43
2022-12-17T12:05:34.603Z,6.97
2022-12-17T12:08:31.920Z,9.48
2022-12-17T12:11:42.114Z,7.82
2022-12-17T12:14:28.097Z,10.30
2022-12-17T12:17:45.483Z,12.90
2022-12-17T12:21:25.062Z,5.45
2022-12-17T12:24:38.772Z,10.98
2022-12-17T12:28:04.536Z,8.10
2022-12-17T12:31:27.253Z,8.85
2022-12-17T12:34:23.311Z,41.15
2022-12-17T12:37:10.579Z,12.30
2022-12-17T12:40:07.250Z,12.05
2022-12-17T12:43:04.371Z,16.33
2022-12-17T12:45:54.628Z,15.90
2022-12-17T12:49:12.043Z,53.83
2022-12-17T12:51:58.585Z,8.27
2022-12-17T12:55:03.917Z,8.45
2022-12-17T12:57:56.336Z,5.63
2022-12-17T13:00:54.358Z,10.82
2022-12-17T13:03:44.289Z,10.07
2022-12-17T13:06:14.064Z,8.57
2022-12-17T13:08:41.570Z,8.73
2022-12-17T13:11:28.811Z,9.82
2022-12-17T13:14:06.426Z,13.30
2022-12-17T13:16:49.064Z,13.60
2022-12-17T13:19:41.528Z,7.63
2022-12-17T13:22:24.008Z,9.95
2022-12-17T13:24:54.399Z,8.80
2022-12-17T13:27:39.383Z,11.27
2022-12-17T13:30:23.098Z,8.15
2022-12-17T13:33:05.212Z,7.97
2022-12-17T13:36:03.780Z,12.60
2022-12-17T13:38:54.178Z,8.88
2022-12-17T13:41:44.483Z,42.30
2022-12-17T13:44:44.454Z,45.95
2022-12-17T13:47:27.990Z,9.88
2022-12-17T13:50:32.704Z,19.58
2022-12-17T13:52:45.072Z,10.60
2022-12-17T13:55:19.926Z,10.10
2022-12-17T13:57:48.649Z,11.38
2022-12-17T14:00:27.582Z,10.40
2022-12-17T14:02:56.374Z,9.23
2022-12-17T14:05:25.513Z,10.43
2022-12-17T14:07:54.023Z,10.30
2022-12-17T14:10:24.963Z,14.63
2022-12-17T14:12:53.955Z,67.80
2022-12-17T14:15:26.518Z,41.65
2022-12-17T14:17:55.035Z,13.20
2022-12-17T14:20:42.713Z,13.15
2022-12-17T14:23:22.646Z,11.25
2022-12-17T14:25:50.305Z,17.40
2022-12-17T14:28:34.490Z,8.68
2022-12-17T14:31:27.531Z,48.67
2022-12-17T14:34:11.701Z,31.15
2022-12-17T14:36:41.504Z,9.57
2022-12-17T14:39:33.248Z,17.38
2022-12-17T14:42:29.687Z,28.58
2022-12-17T14:45:02.169Z,24.13
2022-12-17T14:47:32.515Z,14.98
2022-12-17T14:50:18.127Z,9.77
2022-12-17T14:52:51.007Z,16.38
2022-12-17T14:55:31.951Z,11.05
2022-12-17T14:58:14.958Z,13.68
2022-12-17T15:00:49.824Z,14.82
2022-12-17T15:03:22.698Z,12.57
2022-12-17T15:06:11.734Z,8.23
2022-12-17T15:08:45.512Z,16.02
2022-12-17T15:11:16.658Z,13.05
2022-12-17T15:13:44.161Z,11.85
2022-12-17T15:16:12.092Z,9.45
2022-12-17T15:18:39.903Z,10.60
2022-12-17T15:21:07.550Z,14.73
2022-12-17T15:23:47.420Z,15.10
2022-12-17T15:26:17.491Z,13.53
2022-12-17T15:28:44.964Z,10.73
2022-12-17T15:31:14.229Z,12.63
2022-12-17T15:33:42.603Z,14.10
2022-12-17T15:36:13.726Z,12.63
2022-12-17T15:38:41.295Z,13.38
2022-12-17T15:41:34.598Z,13.52
2022-12-17T15:44:02.078Z,14.25
2022-12-17T15:46:30.301Z,11.18
2022-12-17T15:48:57.862Z,6.90
2022-12-17T15:51:25.322Z,42.75
2022-12-17T15:53:52.715Z,61.42
2022-12-17T15:56:22.524Z,99.57
2022-12-17T15:58:50.424Z,135.43
2022-12-17T16:01:18.322Z,54.40
2022-12-17T16:03:46.042Z,22.73
2022-12-17T16:06:14.762Z,18.13
2022-12-17T16:08:42.109Z,12.85
2022-12-17T16:11:10.842Z,10.60
2022-12-17T16:13:38.771Z,13.85
2022-12-17T16:16:07.138Z,11.02
2022-12-17T16:18:36.043Z,7.97
2022-12-17T16:21:08.007Z,13.57
2022-12-17T16:23:35.610Z,16.05
2022-12-17T16:26:05.397Z,16.27
2022-12-17T16:28:33.634Z,14.90
2022-12-17T16:31:10.705Z,14.30
2022-12-17T16:33:40.469Z,15.10
2022-12-17T16:36:09.563Z,18.67
2022-12-17T16:38:43.448Z,30.70
2022-12-17T16:41:10.854Z,50.90
2022-12-17T16:43:38.145Z,35.88
2022-12-17T16:46:12.016Z,33.55
2022-12-17T16:48:40.238Z,123.65
2022-12-17T16:51:26.537Z,45.90
2022-12-17T16:53:57.019Z,19.70
2022-12-17T16:56:28.222Z,21.15
2022-12-17T16:58:55.920Z,36.88
2022-12-17T17:01:26.702Z,33.92
2022-12-17T17:03:54.292Z,36.05
2022-12-17T17:06:21.825Z,24.20
2022-12-17T17:08:49.814Z,21.25
2022-12-17T17:11:22.920Z,23.30
2022-12-17T17:13:54.409Z,25.65
2022-12-17T17:16:24.511Z,20.33
2022-12-17T17:18:53.225Z,40.92
2022-12-17T17:21:20.452Z,33.42
2022-12-17T17:23:49.476Z,25.50
2022-12-17T17:26:17.295Z,29.27
2022-12-17T17:28:46.157Z,31.88
2022-12-17T17:31:14.951Z,30.42
2022-12-17T17:33:48.986Z,35.28
2022-12-17T17:36:19.657Z,27.33
2022-12-17T17:38:48.478Z,24.48
2022-12-17T17:41:22.124Z,26.67
2022-12-17T17:44:04.407Z,26.15
2022-12-17T17:46:32.299Z,35.33
2022-12-17T17:49:01.538Z,24.63
2022-12-17T17:52:07.861Z,28.13
2022-12-17T17:54:21.789Z,28.33
2022-12-17T17:56:49.170Z,28.52
2022-12-17T17:59:20.592Z,61.53
2022-12-17T18:01:50.226Z,257.52
2022-12-17T18:04:20.960Z,86.03
2022-12-17T18:07:23.203Z,174.50
2022-12-17T18:09:36.516Z,258.60
2022-12-17T18:12:23.843Z,33.75
2022-12-17T18:15:14.704Z,31.73
2022-12-17T18:17:38.654Z,32.72
2022-12-17T18:20:06.749Z,43.63
2022-12-17T18:22:34.279Z,56.17
2022-12-17T18:25:01.603Z,58.83
2022-12-17T18:27:29.029Z,46.00
2022-12-17T18:29:56.714Z,55.92
2022-12-17T18:32:24.143Z,53.13
2022-12-17T18:34:51.571Z,79.43
2022-12-17T18:37:19.011Z,53.08
2022-12-17T18:39:46.406Z,53.30
2022-12-17T18:42:32.430Z,92.82
2022-12-17T18:44:59.776Z,137.60
2022-12-17T18:47:27.275Z,110.70
2022-12-17T18:49:54.601Z,163.65
2022-12-17T18:52:23.820Z,119.28
2022-12-17T18:54:51.256Z,94.28
2022-12-17T18:57:18.538Z,148.65
2022-12-17T18:59:46.014Z,408.88
2022-12-17T19:02:14.814Z,181.55
2022-12-17T19:04:42.413Z,126.05
2022-12-17T19:07:10.303Z,83.97
2022-12-17T19:09:40.666Z,110.00
2022-12-17T19:12:09.195Z,57.95
2022-12-17T19:14:37.365Z,59.85
2022-12-17T19:17:06.255Z,54.58
2022-12-17T19:19:34.259Z,49.72
2022-12-17T19:22:02.315Z,124.25
2022-12-17T19:24:29.747Z,146.60
2022-12-17T19:26:57.249Z,335.27
2022-12-17T19:29:24.648Z,101.18
2022-12-17T19:31:52.059Z,60.97
2022-12-17T19:34:20.201Z,40.78
2022-12-17T19:36:48.250Z,461.80
2022-12-17T19:39:18.610Z,336.40
2022-12-17T19:41:46.403Z,213.10
2022-12-17T19:44:17.109Z,139.88
2022-12-17T19:46:44.807Z,159.35
2022-12-17T19:49:16.274Z,109.05
2022-12-17T19:51:44.691Z,110.18
2022-12-17T19:54:15.272Z,184.27
2022-12-17T19:56:45.215Z,67.43
2022-12-17T19:59:13.834Z,155.35
2022-12-17T20:01:44.901Z,156.73
2022-12-17T20:04:14.547Z,448.08
2022-12-17T20:06:42.386Z,364.58
2022-12-17T20:09:10.195Z,235.75
2022-12-17T20:11:38.057Z,164.80
2022-12-17T20:14:24.100Z,307.70
2022-12-17T20:16:54.920Z,133.98
2022-12-17T20:19:25.332Z,143.27
2022-12-17T20:21:53.770Z,165.35
2022-12-17T20:24:27.172Z,162.30
2022-12-17T20:26:58.473Z,188.85
2022-12-17T20:29:26.131Z,46.33
2022-12-17T20:31:54.478Z,63.55
2022-12-17T20:34:22.355Z,66.05
2022-12-17T20:36:51.104Z,40.20
2022-12-17T20:39:23.255Z,42.00
2022-12-17T20:41:53.814Z,59.10
2022-12-17T20:44:21.264Z,57.35
2022-12-17T20:46:48.684Z,76.40
2022-12-17T20:49:15.996Z,41.20
2022-12-17T20:51:43.813Z,36.45
2022-12-17T20:54:11.753Z,34.13
2022-12-17T20:56:40.034Z,33.53
2022-12-17T20:59:12.325Z,39.90
2022-12-17T21:04:08.130Z,179.88
2022-12-17T21:06:43.599Z,164.93
2022-12-17T21:09:11.954Z,301.10
2022-12-17T21:11:40.965Z,96.65
2022-12-17T21:14:11.128Z,49.30
2022-12-17T21:16:39.911Z,64.78
2022-12-17T21:19:09.297Z,99.43
2022-12-17T21:21:38.528Z,163.15
2022-12-17T21:24:07.029Z,67.70
2022-12-17T21:26:45.273Z,100.18
2022-12-17T21:29:14.576Z,62.03
2022-12-17T21:31:46.330Z,53.42
2022-12-17T21:34:21.905Z,106.18
2022-12-17T21:36:52.746Z,149.95
2022-12-17T21:39:21.054Z,260.10
2022-12-17T21:42:09.190Z,103.00
2022-12-17T21:44:36.951Z,111.60
2022-12-17T21:47:04.351Z,37.83
2022-12-17T21:49:32.087Z,124.18
2022-12-17T21:52:00.350Z,126.75
2022-12-17T21:54:27.934Z,142.30
2022-12-17T21:56:55.425Z,186.18
2022-12-17T21:59:22.859Z,180.40
2022-12-17T22:01:51.162Z,124.93
2022-12-17T22:04:18.690Z,63.17
2022-12-17T22:06:52.452Z,163.77
2022-12-17T22:09:59.352Z,152.38
2022-12-17T22:12:39.431Z,147.93
2022-12-17T22:15:08.832Z,32.85
2022-12-17T22:17:37.223Z,25.40
2022-12-17T22:20:05.954Z,44.38
2022-12-17T22:22:33.230Z,79.43
2022-12-17T22:25:07.979Z,84.00
2022-12-17T22:27:36.733Z,73.40
2022-12-17T22:30:24.368Z,46.25
2022-12-17T22:33:01.480Z,28.77
2022-12-17T22:36:21.604Z,22.33
2022-12-17T22:41:08.253Z,18.08
2022-12-17T22:44:35.172Z,22.42
2022-12-17T22:44:41.788Z,20.02
2022-12-17T22:47:06.483Z,10.30
2022-12-17T22:49:33.844Z,20.30
2022-12-17T22:52:01.869Z,29.08
2022-12-17T22:54:30.576Z,25.67
2022-12-17T22:57:34.246Z,20.10
2022-12-17T22:59:46.052Z,13.40
2022-12-17T23:02:13.413Z,52.15
2022-12-17T23:04:41.040Z,346.65
2022-12-17T23:07:08.525Z,49.33
2022-12-17T23:09:37.318Z,27.30
2022-12-17T23:12:24.783Z,23.35
2022-12-17T23:14:52.096Z,21.15
2022-12-17T23:17:19.552Z,26.27
2022-12-17T23:19:46.870Z,21.73
2022-12-17T23:22:20.353Z,19.40
2022-12-17T23:24:49.670Z,26.35
2022-12-17T23:27:17.032Z,21.17
2022-12-17T23:29:44.400Z,23.27
2022-12-17T23:32:11.892Z,20.55
2022-12-17T23:34:39.364Z,37.42
2022-12-17T23:37:06.631Z,81.03
2022-12-17T23:39:34.222Z,66.47
2022-12-17T23:42:01.680Z,27.63
2022-12-17T23:44:31.117Z,31.45
2022-12-17T23:46:58.515Z,29.88
2022-12-17T23:49:25.971Z,22.27
2022-12-17T23:51:53.347Z,78.75
2022-12-17T23:54:20.673Z,48.03
2022-12-17T23:56:48.128Z,37.55
2022-12-17T23:59:15.431Z,27.80
